sensor_id;sensor_type;location;lat;lon;timestamp;pressure;altitude;pressure_sealevel;temperature;humidity
12757;BME280;31601;48.042;12.240;2023-08-12T00:02:10;96627.81;;;17.36;72.05
12757;BME280;31601;48.042;12.240;2023-08-12T00:04:36;96634.66;;;17.19;72.55
12757;BME280;31601;48.042;12.240;2023-08-12T00:07:03;96633.53;;;17.33;72.10
12757;BME280;31601;48.042;12.240;2023-08-12T00:09:30;96628.50;;;17.25;72.29
12757;BME280;31601;48.042;12.240;2023-08-12T00:11:56;96624.53;;;17.34;71.75
12757;BME280;31601;48.042;12.240;2023-08-12T00:14:22;96624.31;;;17.36;71.71
12757;BME280;31601;48.042;12.240;2023-08-12T00:16:50;96625.59;;;17.33;71.76
12757;BME280;31601;48.042;12.240;2023-08-12T00:19:17;96624.72;;;17.40;71.81
12757;BME280;31601;48.042;12.240;2023-08-12T00:21:43;96626.94;;;17.43;71.66
12757;BME280;31601;48.042;12.240;2023-08-12T00:24:10;96624.53;;;17.34;71.79
12757;BME280;31601;48.042;12.240;2023-08-12T00:26:39;96633.53;;;17.33;71.68
12757;BME280;31601;48.042;12.240;2023-08-12T00:29:05;96626.16;;;17.35;71.60
12757;BME280;31601;48.042;12.240;2023-08-12T00:31:31;96617.66;;;17.27;71.76
12757;BME280;31601;48.042;12.240;2023-08-12T00:33:59;96615.19;;;17.32;71.53
12757;BME280;31601;48.042;12.240;2023-08-12T00:36:26;96614.75;;;17.35;71.56
12757;BME280;31601;48.042;12.240;2023-08-12T00:38:52;96606.94;;;17.40;71.66
12757;BME280;31601;48.042;12.240;2023-08-12T00:41:19;96607.16;;;17.39;71.44
12757;BME280;31601;48.042;12.240;2023-08-12T00:43:45;96597.16;;;17.41;71.43
12757;BME280;31601;48.042;12.240;2023-08-12T00:46:12;96595.66;;;17.26;71.90
12757;BME280;31601;48.042;12.240;2023-08-12T00:48:40;96594.16;;;17.12;72.16
12757;BME280;31601;48.042;12.240;2023-08-12T00:51:08;96594.31;;;17.17;71.95
12757;BME280;31601;48.042;12.240;2023-08-12T00:53:34;96592.84;;;17.21;71.83
12757;BME280;31601;48.042;12.240;2023-08-12T00:56:01;96589.22;;;17.15;71.92
12757;BME280;31601;48.042;12.240;2023-08-12T00:58:27;96584.41;;;17.06;71.73
12757;BME280;31601;48.042;12.240;2023-08-12T01:00:54;96593.03;;;16.94;71.56
12757;BME280;31601;48.042;12.240;2023-08-12T01:03:21;96589.59;;;16.94;71.35
12757;BME280;31601;48.042;12.240;2023-08-12T01:05:47;96587.78;;;16.88;71.37
12757;BME280;31601;48.042;12.240;2023-08-12T01:08:15;96589.41;;;16.82;71.38
12757;BME280;31601;48.042;12.240;2023-08-12T01:10:58;96592.50;;;16.79;71.39
12757;BME280;31601;48.042;12.240;2023-08-12T01:13:32;96587.81;;;16.81;71.44
12757;BME280;31601;48.042;12.240;2023-08-12T01:16:03;96593.72;;;16.83;71.27
12757;BME280;31601;48.042;12.240;2023-08-12T01:18:31;96587.38;;;16.84;71.24
12757;BME280;31601;48.042;12.240;2023-08-12T01:20:58;96588.63;;;16.81;71.11
12757;BME280;31601;48.042;12.240;2023-08-12T01:23:27;96588.19;;;16.85;71.08
12757;BME280;31601;48.042;12.240;2023-08-12T01:25:53;96582.31;;;16.82;71.13
12757;BME280;31601;48.042;12.240;2023-08-12T01:28:20;96582.31;;;16.82;71.04
12757;BME280;31601;48.042;12.240;2023-08-12T01:30:51;96584.34;;;16.80;71.10
12757;BME280;31601;48.042;12.240;2023-08-12T01:33:28;96583.09;;;16.83;71.07
12757;BME280;31601;48.042;12.240;2023-08-12T01:36:04;96581.91;;;16.79;71.13
12757;BME280;31601;48.042;12.240;2023-08-12T01:38:35;96579.88;;;16.81;71.10
12757;BME280;31601;48.042;12.240;2023-08-12T01:41:03;96580.47;;;16.83;70.94
12757;BME280;31601;48.042;12.240;2023-08-12T01:43:31;96578.88;;;16.75;71.12
12757;BME280;31601;48.042;12.240;2023-08-12T01:45:58;96576.72;;;16.65;71.65
12757;BME280;31601;48.042;12.240;2023-08-12T01:48:25;96573.91;;;16.54;71.89
12757;BME280;31601;48.042;12.240;2023-08-12T01:50:51;96569.84;;;16.51;72.03
12757;BME280;31601;48.042;12.240;2023-08-12T01:53:17;96576.78;;;16.52;71.96
12757;BME280;31601;48.042;12.240;2023-08-12T01:55:45;96573.72;;;16.55;71.84
12757;BME280;31601;48.042;12.240;2023-08-12T01:58:12;96573.34;;;16.52;71.87
12757;BME280;31601;48.042;12.240;2023-08-12T02:00:38;96567.88;;;16.40;71.82
12757;BME280;31601;48.042;12.240;2023-08-12T02:03:04;96563.69;;;16.25;71.93
12757;BME280;31601;48.042;12.240;2023-08-12T02:05:32;96567.16;;;16.26;71.57
12757;BME280;31601;48.042;12.240;2023-08-12T02:07:58;96566.94;;;16.27;71.63
12757;BME280;31601;48.042;12.240;2023-08-12T02:10:24;96564.50;;;16.26;71.91
12757;BME280;31601;48.042;12.240;2023-08-12T02:12:52;96555.91;;;16.31;71.75
12757;BME280;31601;48.042;12.240;2023-08-12T02:15:19;96553.88;;;16.33;71.76
12757;BME280;31601;48.042;12.240;2023-08-12T02:17:45;96551.03;;;16.27;72.03
12757;BME280;31601;48.042;12.240;2023-08-12T02:20:12;96556.34;;;16.27;72.22
12757;BME280;31601;48.042;12.240;2023-08-12T02:22:38;96563.44;;;16.34;71.93
12757;BME280;31601;48.042;12.240;2023-08-12T02:25:05;96559.38;;;16.31;71.84
12757;BME280;31601;48.042;12.240;2023-08-12T02:27:32;96553.66;;;16.34;71.52
12757;BME280;31601;48.042;12.240;2023-08-12T02:29:59;96561.81;;;16.33;71.34
12757;BME280;31601;48.042;12.240;2023-08-12T02:32:26;96553.88;;;16.33;71.21
12757;BME280;31601;48.042;12.240;2023-08-12T02:34:53;96555.31;;;16.28;71.29
12757;BME280;31601;48.042;12.240;2023-08-12T02:37:19;96557.19;;;16.21;70.98
12757;BME280;31601;48.042;12.240;2023-08-12T02:39:47;96557.22;;;16.15;71.02
12757;BME280;31601;48.042;12.240;2023-08-12T02:42:13;96550.31;;;16.14;71.25
12757;BME280;31601;48.042;12.240;2023-08-12T02:44:40;96548.25;;;16.16;71.36
12757;BME280;31601;48.042;12.240;2023-08-12T02:47:07;96555.97;;;16.17;71.45
12757;BME280;31601;48.042;12.240;2023-08-12T02:49:34;96548.03;;;16.17;71.45
12757;BME280;31601;48.042;12.240;2023-08-12T02:52:00;96544.59;;;16.17;71.67
12757;BME280;31601;48.042;12.240;2023-08-12T02:54:28;96540.13;;;16.10;71.56
12757;BME280;31601;48.042;12.240;2023-08-12T02:56:54;96542.19;;;16.02;72.06
12757;BME280;31601;48.042;12.240;2023-08-12T02:59:20;96534.91;;;15.97;72.26
12757;BME280;31601;48.042;12.240;2023-08-12T03:01:47;96529.81;;;15.96;71.94
12757;BME280;31601;48.042;12.240;2023-08-12T03:04:14;96528.00;;;15.96;72.21
12757;BME280;31601;48.042;12.240;2023-08-12T03:06:41;96530.22;;;15.99;72.26
12757;BME280;31601;48.042;12.240;2023-08-12T03:09:07;96531.22;;;15.98;71.99
12757;BME280;31601;48.042;12.240;2023-08-12T03:11:34;96527.38;;;15.94;72.03
12757;BME280;31601;48.042;12.240;2023-08-12T03:14:00;96527.03;;;15.84;72.36
12757;BME280;31601;48.042;12.240;2023-08-12T03:16:27;96522.44;;;15.52;72.56
12757;BME280;31601;48.042;12.240;2023-08-12T03:18:53;96523.44;;;15.51;72.32
12757;BME280;31601;48.042;12.240;2023-08-12T03:21:21;96528.50;;;15.60;71.86
12757;BME280;31601;48.042;12.240;2023-08-12T03:23:47;96522.63;;;15.57;71.83
12757;BME280;31601;48.042;12.240;2023-08-12T03:26:14;96526.28;;;15.56;71.83
12757;BME280;31601;48.042;12.240;2023-08-12T03:28:41;96525.84;;;15.60;71.58
12757;BME280;31601;48.042;12.240;2023-08-12T03:31:07;96520.78;;;15.65;71.34
12757;BME280;31601;48.042;12.240;2023-08-12T03:33:33;96519.56;;;15.61;71.45
12757;BME280;31601;48.042;12.240;2023-08-12T03:36:00;96523.22;;;15.60;71.69
12757;BME280;31601;48.042;12.240;2023-08-12T03:38:28;96514.25;;;15.61;71.58
12757;BME280;31601;48.042;12.240;2023-08-12T03:40:54;96511.84;;;15.59;71.52
12757;BME280;31601;48.042;12.240;2023-08-12T03:43:21;96511.03;;;15.58;71.29
12757;BME280;31601;48.042;12.240;2023-08-12T03:45:47;96514.25;;;15.61;71.33
12757;BME280;31601;48.042;12.240;2023-08-12T03:48:14;96509.78;;;15.61;71.13
12757;BME280;31601;48.042;12.240;2023-08-12T03:50:41;96516.28;;;15.65;71.37
12757;BME280;31601;48.042;12.240;2023-08-12T03:53:07;96514.84;;;15.63;71.28
12757;BME280;31601;48.042;12.240;2023-08-12T03:55:37;96517.13;;;15.59;70.99
12757;BME280;31601;48.042;12.240;2023-08-12T03:58:04;96517.16;;;15.52;71.17
12757;BME280;31601;48.042;12.240;2023-08-12T04:00:30;96516.53;;;15.50;71.51
12757;BME280;31601;48.042;12.240;2023-08-12T04:02:57;96521.19;;;15.55;71.43
12757;BME280;31601;48.042;12.240;2023-08-12T04:05:23;96509.84;;;15.48;72.03
12757;BME280;31601;48.042;12.240;2023-08-12T04:07:50;96504.34;;;15.49;71.79
12757;BME280;31601;48.042;12.240;2023-08-12T04:10:16;96508.59;;;15.50;72.09
12757;BME280;31601;48.042;12.240;2023-08-12T04:12:44;96513.06;;;15.50;72.26
12757;BME280;31601;48.042;12.240;2023-08-12T04:15:10;96513.91;;;15.44;72.51
12757;BME280;31601;48.042;12.240;2023-08-12T04:17:37;96503.56;;;15.29;72.73
12757;BME280;31601;48.042;12.240;2023-08-12T04:20:06;96503.34;;;15.44;72.31
12757;BME280;31601;48.042;12.240;2023-08-12T04:22:32;96507.59;;;15.51;72.39
12757;BME280;31601;48.042;12.240;2023-08-12T04:24:59;96517.13;;;15.59;72.06
12757;BME280;31601;48.042;12.240;2023-08-12T04:27:25;96516.06;;;15.67;72.10
12757;BME280;31601;48.042;12.240;2023-08-12T04:29:53;96511.78;;;15.66;72.03
12757;BME280;31601;48.042;12.240;2023-08-12T04:32:20;96521.78;;;15.77;71.86
12757;BME280;31601;48.042;12.240;2023-08-12T04:34:47;96515.63;;;15.83;71.40
12757;BME280;31601;48.042;12.240;2023-08-12T04:37:13;96515.81;;;15.88;71.40
12757;BME280;31601;48.042;12.240;2023-08-12T04:39:39;96512.72;;;15.98;71.28
12757;BME280;31601;48.042;12.240;2023-08-12T04:42:06;96510.22;;;16.10;70.94
12757;BME280;31601;48.042;12.240;2023-08-12T04:44:32;96516.53;;;16.09;71.56
12757;BME280;31601;48.042;12.240;2023-08-12T04:47:00;96524.09;;;15.99;71.65
12757;BME280;31601;48.042;12.240;2023-08-12T04:49:27;96523.97;;;15.87;72.14
12757;BME280;31601;48.042;12.240;2023-08-12T04:51:54;96527.00;;;15.90;72.15
12757;BME280;31601;48.042;12.240;2023-08-12T04:54:20;96519.03;;;15.97;71.82
12757;BME280;31601;48.042;12.240;2023-08-12T04:56:46;96524.88;;;16.06;71.84
12757;BME280;31601;48.042;12.240;2023-08-12T04:59:13;96519.38;;;16.07;71.91
12757;BME280;31601;48.042;12.240;2023-08-12T05:01:39;96509.53;;;16.21;71.64
12757;BME280;31601;48.042;12.240;2023-08-12T05:04:07;96517.06;;;16.24;72.25
12757;BME280;31601;48.042;12.240;2023-08-12T05:06:34;96513.28;;;16.39;72.36
12757;BME280;31601;48.042;12.240;2023-08-12T05:09:00;96512.34;;;16.58;71.97
12757;BME280;31601;48.042;12.240;2023-08-12T05:11:27;96518.59;;;16.71;71.84
12757;BME280;31601;48.042;12.240;2023-08-12T05:13:54;96515.22;;;16.82;72.08
12757;BME280;31601;48.042;12.240;2023-08-12T05:16:20;96511.50;;;16.96;71.84
12757;BME280;31601;48.042;12.240;2023-08-12T05:18:47;96518.88;;;17.13;71.63
12757;BME280;31601;48.042;12.240;2023-08-12T05:21:15;96514.53;;;17.18;72.01
12757;BME280;31601;48.042;12.240;2023-08-12T05:23:41;96506.97;;;17.41;71.56
12757;BME280;31601;48.042;12.240;2023-08-12T05:26:07;96510.50;;;17.53;71.21
12757;BME280;31601;48.042;12.240;2023-08-12T05:28:34;96507.72;;;17.66;70.97
12757;BME280;31601;48.042;12.240;2023-08-12T05:31:00;96515.66;;;17.85;70.43
12757;BME280;31601;48.042;12.240;2023-08-12T05:33:27;96520.84;;;17.80;71.06
12757;BME280;31601;48.042;12.240;2023-08-12T05:35:53;96516.44;;;17.74;72.29
12757;BME280;31601;48.042;12.240;2023-08-12T05:38:21;96512.78;;;17.86;71.45
12757;BME280;31601;48.042;12.240;2023-08-12T05:40:48;96522.22;;;18.01;71.67
12757;BME280;31601;48.042;12.240;2023-08-12T05:43:14;96524.38;;;18.11;71.90
12757;BME280;31601;48.042;12.240;2023-08-12T05:45:40;96527.28;;;18.21;71.72
12757;BME280;31601;48.042;12.240;2023-08-12T05:48:07;96527.25;;;18.39;71.18
12757;BME280;31601;48.042;12.240;2023-08-12T05:50:34;96532.25;;;18.48;70.90
12757;BME280;31601;48.042;12.240;2023-08-12T05:53:00;96530.13;;;18.38;70.81
12757;BME280;31601;48.042;12.240;2023-08-12T05:55:28;96520.94;;;18.52;70.63
12757;BME280;31601;48.042;12.240;2023-08-12T05:57:54;96523.31;;;18.72;70.28
12757;BME280;31601;48.042;12.240;2023-08-12T06:00:21;96524.44;;;18.76;70.27
12757;BME280;31601;48.042;12.240;2023-08-12T06:02:47;96518.16;;;18.89;70.33
12757;BME280;31601;48.042;12.240;2023-08-12T06:05:14;96522.53;;;19.07;69.91
12757;BME280;31601;48.042;12.240;2023-08-12T06:07:40;96509.94;;;19.14;69.59
12757;BME280;31601;48.042;12.240;2023-08-12T06:10:07;96509.38;;;19.36;69.27
12757;BME280;31601;48.042;12.240;2023-08-12T06:12:35;96513.06;;;19.35;69.82
12757;BME280;31601;48.042;12.240;2023-08-12T06:15:02;96509.91;;;19.62;69.18
12757;BME280;31601;48.042;12.240;2023-08-12T06:17:29;96508.38;;;19.66;68.02
12757;BME280;31601;48.042;12.240;2023-08-12T06:19:56;96508.38;;;19.90;67.24
12757;BME280;31601;48.042;12.240;2023-08-12T06:22:22;96512.38;;;20.04;66.45
12757;BME280;31601;48.042;12.240;2023-08-12T06:24:49;96505.47;;;20.20;66.14
12757;BME280;31601;48.042;12.240;2023-08-12T06:27:15;96507.38;;;20.36;65.81
12757;BME280;31601;48.042;12.240;2023-08-12T06:29:43;96503.69;;;20.54;65.35
12757;BME280;31601;48.042;12.240;2023-08-12T06:32:09;96500.56;;;20.57;65.91
12757;BME280;31601;48.042;12.240;2023-08-12T06:34:38;96506.84;;;20.51;65.66
12757;BME280;31601;48.042;12.240;2023-08-12T06:37:04;96507.63;;;20.35;65.06
12757;BME280;31601;48.042;12.240;2023-08-12T06:39:31;96510.78;;;20.49;66.43
12757;BME280;31601;48.042;12.240;2023-08-12T06:41:57;96510.91;;;20.71;65.91
12757;BME280;31601;48.042;12.240;2023-08-12T06:44:24;96508.97;;;20.83;65.57
12757;BME280;31601;48.042;12.240;2023-08-12T06:46:51;96510.16;;;21.26;64.25
12757;BME280;31601;48.042;12.240;2023-08-12T06:49:17;96498.13;;;21.24;63.20
12757;BME280;31601;48.042;12.240;2023-08-12T06:51:44;96504.75;;;21.38;61.34
12757;BME280;31601;48.042;12.240;2023-08-12T06:54:10;96501.31;;;21.60;60.42
12757;BME280;31601;48.042;12.240;2023-08-12T06:56:37;96500.69;;;21.75;60.36
12757;BME280;31601;48.042;12.240;2023-08-12T06:59:04;96494.97;;;21.88;59.66
12757;BME280;31601;48.042;12.240;2023-08-12T07:01:30;96502.63;;;22.02;59.60
12757;BME280;31601;48.042;12.240;2023-08-12T07:03:58;96495.69;;;22.28;59.14
12757;BME280;31601;48.042;12.240;2023-08-12T07:06:24;96499.88;;;22.46;58.06
12757;BME280;31601;48.042;12.240;2023-08-12T07:08:51;96491.66;;;22.85;57.32
12757;BME280;31601;48.042;12.240;2023-08-12T07:11:18;96499.38;;;22.81;57.85
12757;BME280;31601;48.042;12.240;2023-08-12T07:13:45;96494.63;;;23.21;57.04
12757;BME280;31601;48.042;12.240;2023-08-12T07:16:12;96494.00;;;23.09;57.29
12757;BME280;31601;48.042;12.240;2023-08-12T07:18:38;96492.88;;;23.04;58.34
12757;BME280;31601;48.042;12.240;2023-08-12T07:21:06;96486.78;;;23.57;57.73
12757;BME280;31601;48.042;12.240;2023-08-12T07:23:33;96488.34;;;23.48;57.34
12757;BME280;31601;48.042;12.240;2023-08-12T07:25:59;96482.94;;;23.95;56.80
12757;BME280;31601;48.042;12.240;2023-08-12T07:28:26;96476.31;;;24.29;55.31
12757;BME280;31601;48.042;12.240;2023-08-12T07:30:52;96470.41;;;24.17;54.33
12757;BME280;31601;48.042;12.240;2023-08-12T07:33:19;96470.78;;;23.72;55.03
12757;BME280;31601;48.042;12.240;2023-08-12T07:35:46;96472.13;;;23.70;55.57
12757;BME280;31601;48.042;12.240;2023-08-12T07:38:13;96477.22;;;23.76;56.82
12757;BME280;31601;48.042;12.240;2023-08-12T07:40:40;96477.22;;;23.76;56.69
12757;BME280;31601;48.042;12.240;2023-08-12T07:43:06;96481.88;;;24.02;55.42
12757;BME280;31601;48.042;12.240;2023-08-12T07:45:33;96477.97;;;24.51;54.41
12757;BME280;31601;48.042;12.240;2023-08-12T07:47:59;96477.47;;;24.64;54.12
12757;BME280;31601;48.042;12.240;2023-08-12T07:50:26;96472.31;;;24.31;53.75
12757;BME280;31601;48.042;12.240;2023-08-12T07:52:52;96474.97;;;24.16;53.89
12757;BME280;31601;48.042;12.240;2023-08-12T07:55:20;96488.94;;;24.28;55.39
12757;BME280;31601;48.042;12.240;2023-08-12T07:57:46;96476.84;;;24.31;55.50
12757;BME280;31601;48.042;12.240;2023-08-12T08:00:13;96474.75;;;24.54;55.26
12757;BME280;31601;48.042;12.240;2023-08-12T08:02:40;96466.19;;;24.72;54.30
12757;BME280;31601;48.042;12.240;2023-08-12T08:05:07;96465.91;;;24.79;54.50
12757;BME280;31601;48.042;12.240;2023-08-12T08:07:33;96463.16;;;25.25;53.74
12757;BME280;31601;48.042;12.240;2023-08-12T08:10:00;96464.53;;;25.23;52.76
12757;BME280;31601;48.042;12.240;2023-08-12T08:12:28;96460.25;;;25.16;52.81
12757;BME280;31601;48.042;12.240;2023-08-12T08:14:54;96461.84;;;25.23;51.49
12757;BME280;31601;48.042;12.240;2023-08-12T08:17:20;96468.84;;;25.29;51.37
12757;BME280;31601;48.042;12.240;2023-08-12T08:19:47;96466.53;;;25.77;50.93
12757;BME280;31601;48.042;12.240;2023-08-12T08:22:13;96457.06;;;25.95;49.10
12757;BME280;31601;48.042;12.240;2023-08-12T08:24:40;96459.88;;;26.19;49.41
12757;BME280;31601;48.042;12.240;2023-08-12T08:27:06;96453.22;;;26.46;49.06
12757;BME280;31601;48.042;12.240;2023-08-12T08:29:34;96459.03;;;26.69;48.79
12757;BME280;31601;48.042;12.240;2023-08-12T08:32:00;96453.16;;;26.22;48.94
12757;BME280;31601;48.042;12.240;2023-08-12T08:34:27;96455.06;;;26.56;48.43
12757;BME280;31601;48.042;12.240;2023-08-12T08:36:53;96450.75;;;26.89;48.59
12757;BME280;31601;48.042;12.240;2023-08-12T08:39:20;96444.78;;;26.97;47.76
12757;BME280;31601;48.042;12.240;2023-08-12T08:41:47;96449.47;;;27.11;48.19
12757;BME280;31601;48.042;12.240;2023-08-12T08:44:15;96454.00;;;26.86;47.20
12757;BME280;31601;48.042;12.240;2023-08-12T08:46:43;96460.44;;;27.20;47.72
12757;BME280;31601;48.042;12.240;2023-08-12T08:49:10;96470.00;;;26.77;47.70
12757;BME280;31601;48.042;12.240;2023-08-12T08:51:38;96465.94;;;26.35;49.43
12757;BME280;31601;48.042;12.240;2023-08-12T08:54:05;96471.50;;;26.54;48.70
12757;BME280;31601;48.042;12.240;2023-08-12T08:56:32;96468.09;;;26.78;47.89
12757;BME280;31601;48.042;12.240;2023-08-12T08:58:58;96463.31;;;27.28;48.27
12757;BME280;31601;48.042;12.240;2023-08-12T09:01:27;96470.72;;;27.42;48.12
12757;BME280;31601;48.042;12.240;2023-08-12T09:03:57;96461.84;;;27.65;47.44
12757;BME280;31601;48.042;12.240;2023-08-12T09:06:25;96470.91;;;27.75;46.86
12757;BME280;31601;48.042;12.240;2023-08-12T09:08:52;96466.81;;;28.01;47.02
12757;BME280;31601;48.042;12.240;2023-08-12T09:11:20;96462.91;;;27.45;48.09
12757;BME280;31601;48.042;12.240;2023-08-12T09:13:46;96460.09;;;27.26;48.16
12757;BME280;31601;48.042;12.240;2023-08-12T09:16:13;96468.44;;;27.54;47.57
12757;BME280;31601;48.042;12.240;2023-08-12T09:18:40;96462.50;;;27.28;48.34
12757;BME280;31601;48.042;12.240;2023-08-12T09:21:09;96460.50;;;27.44;49.19
12757;BME280;31601;48.042;12.240;2023-08-12T09:23:37;96469.25;;;27.01;48.22
12757;BME280;31601;48.042;12.240;2023-08-12T09:26:12;96456.50;;;27.60;47.61
12757;BME280;31601;48.042;12.240;2023-08-12T09:28:39;96455.75;;;27.30;48.04
12757;BME280;31601;48.042;12.240;2023-08-12T09:31:05;96462.50;;;28.00;48.09
12757;BME280;31601;48.042;12.240;2023-08-12T09:33:32;96464.91;;;28.40;47.15
12757;BME280;31601;48.042;12.240;2023-08-12T09:35:58;96457.63;;;28.40;44.47
12757;BME280;31601;48.042;12.240;2023-08-12T09:38:26;96450.63;;;28.39;44.00
12757;BME280;31601;48.042;12.240;2023-08-12T09:40:53;96452.91;;;28.32;44.76
12757;BME280;31601;48.042;12.240;2023-08-12T09:43:23;96451.44;;;28.21;44.27
12757;BME280;31601;48.042;12.240;2023-08-12T09:45:50;96448.44;;;28.61;44.15
12757;BME280;31601;48.042;12.240;2023-08-12T09:48:16;96451.91;;;28.80;45.07
12757;BME280;31601;48.042;12.240;2023-08-12T09:50:43;96449.22;;;28.94;44.34
12757;BME280;31601;48.042;12.240;2023-08-12T09:53:09;96444.69;;;29.22;43.90
12757;BME280;31601;48.042;12.240;2023-08-12T09:55:38;96447.50;;;29.31;44.27
12757;BME280;31601;48.042;12.240;2023-08-12T09:58:06;96447.28;;;29.14;44.00
12757;BME280;31601;48.042;12.240;2023-08-12T10:00:34;96443.13;;;29.21;42.80
12757;BME280;31601;48.042;12.240;2023-08-12T10:03:01;96439.91;;;29.47;44.01
12757;BME280;31601;48.042;12.240;2023-08-12T10:05:31;96446.00;;;29.67;47.18
12757;BME280;31601;48.042;12.240;2023-08-12T10:07:59;96444.09;;;29.67;46.63
12757;BME280;31601;48.042;12.240;2023-08-12T10:10:28;96452.31;;;29.90;45.52
12757;BME280;31601;48.042;12.240;2023-08-12T10:12:59;96444.97;;;30.04;44.56
12757;BME280;31601;48.042;12.240;2023-08-12T10:15:25;96444.38;;;29.79;48.36
12757;BME280;31601;48.042;12.240;2023-08-12T10:17:52;96442.41;;;29.71;45.96
12757;BME280;31601;48.042;12.240;2023-08-12T10:20:21;96441.50;;;29.90;44.61
12757;BME280;31601;48.042;12.240;2023-08-12T10:22:48;96439.53;;;30.18;41.53
12757;BME280;31601;48.042;12.240;2023-08-12T10:25:17;96440.00;;;30.34;42.70
12757;BME280;31601;48.042;12.240;2023-08-12T10:27:44;96435.25;;;30.40;41.46
12757;BME280;31601;48.042;12.240;2023-08-12T10:30:12;96435.22;;;30.53;41.35
12757;BME280;31601;48.042;12.240;2023-08-12T10:32:39;96433.03;;;30.87;38.54
12757;BME280;31601;48.042;12.240;2023-08-12T10:35:07;96423.03;;;31.28;38.81
12757;BME280;31601;48.042;12.240;2023-08-12T10:37:34;96425.94;;;31.00;36.92
12757;BME280;31601;48.042;12.240;2023-08-12T10:40:03;96427.31;;;31.11;37.49
12757;BME280;31601;48.042;12.240;2023-08-12T10:42:42;96420.34;;;31.28;38.03
12757;BME280;31601;48.042;12.240;2023-08-12T10:45:11;96421.34;;;31.00;37.57
12757;BME280;31601;48.042;12.240;2023-08-12T10:47:40;96422.34;;;30.82;39.06
12757;BME280;31601;48.042;12.240;2023-08-12T10:50:16;96412.53;;;31.26;37.40
12757;BME280;31601;48.042;12.240;2023-08-12T10:52:43;96402.94;;;31.69;38.16
12757;BME280;31601;48.042;12.240;2023-08-12T10:55:18;96401.09;;;32.22;37.31
12757;BME280;31601;48.042;12.240;2023-08-12T10:57:45;96409.38;;;32.08;38.32
12757;BME280;31601;48.042;12.240;2023-08-12T11:00:14;96404.88;;;32.56;37.44
12757;BME280;31601;48.042;12.240;2023-08-12T11:02:44;96407.97;;;32.37;37.69
12757;BME280;31601;48.042;12.240;2023-08-12T11:05:11;96399.03;;;32.27;38.28
12757;BME280;31601;48.042;12.240;2023-08-12T11:07:39;96401.22;;;32.69;38.73
12757;BME280;31601;48.042;12.240;2023-08-12T11:10:11;96395.47;;;33.18;37.71
12757;BME280;31601;48.042;12.240;2023-08-12T11:12:39;96394.00;;;33.59;37.25
12757;BME280;31601;48.042;12.240;2023-08-12T11:15:06;96387.94;;;34.04;36.68
12757;BME280;31601;48.042;12.240;2023-08-12T11:17:36;96391.19;;;33.77;35.10
12757;BME280;31601;48.042;12.240;2023-08-12T11:20:04;96387.63;;;34.06;35.60
12757;BME280;31601;48.042;12.240;2023-08-12T11:22:32;96393.06;;;34.06;35.27
12757;BME280;31601;48.042;12.240;2023-08-12T11:25:00;96389.88;;;33.23;35.72
12757;BME280;31601;48.042;12.240;2023-08-12T11:27:26;96387.44;;;32.83;38.33
12757;BME280;31601;48.042;12.240;2023-08-12T11:29:53;96389.16;;;32.96;37.87
12757;BME280;31601;48.042;12.240;2023-08-12T11:32:19;96388.09;;;31.57;39.11
12757;BME280;31601;48.042;12.240;2023-08-12T11:34:47;96387.63;;;31.82;38.77
12757;BME280;31601;48.042;12.240;2023-08-12T11:37:13;96389.75;;;32.28;38.69
12757;BME280;31601;48.042;12.240;2023-08-12T11:39:40;96385.75;;;32.52;39.37
12757;BME280;31601;48.042;12.240;2023-08-12T11:42:06;96380.44;;;32.56;40.01
12757;BME280;31601;48.042;12.240;2023-08-12T11:44:33;96379.63;;;32.73;40.19
12757;BME280;31601;48.042;12.240;2023-08-12T11:46:59;96380.47;;;32.64;38.70
12757;BME280;31601;48.042;12.240;2023-08-12T11:49:26;96373.47;;;31.93;39.07
12757;BME280;31601;48.042;12.240;2023-08-12T11:51:54;96378.00;;;32.89;38.74
12757;BME280;31601;48.042;12.240;2023-08-12T11:54:20;96374.03;;;33.25;39.05
12757;BME280;31601;48.042;12.240;2023-08-12T11:56:47;96380.28;;;32.70;37.35
12757;BME280;31601;48.042;12.240;2023-08-12T11:59:13;96371.22;;;33.04;38.15
12757;BME280;31601;48.042;12.240;2023-08-12T12:01:40;96372.06;;;32.87;38.33
12757;BME280;31601;48.042;12.240;2023-08-12T12:04:11;96370.78;;;32.93;38.71
12757;BME280;31601;48.042;12.240;2023-08-12T12:06:37;96362.28;;;33.04;38.00
12757;BME280;31601;48.042;12.240;2023-08-12T12:09:07;96377.09;;;32.68;40.78
12757;BME280;31601;48.042;12.240;2023-08-12T12:11:35;96373.16;;;33.04;39.43
12757;BME280;31601;48.042;12.240;2023-08-12T12:14:02;96367.72;;;33.04;39.97
12757;BME280;31601;48.042;12.240;2023-08-12T12:16:39;96366.13;;;32.03;38.97
12757;BME280;31601;48.042;12.240;2023-08-12T12:19:09;96364.81;;;32.44;38.78
12757;BME280;31601;48.042;12.240;2023-08-12T12:21:39;96366.28;;;32.41;39.92
12757;BME280;31601;48.042;12.240;2023-08-12T12:24:08;96359.19;;;32.58;40.52
12757;BME280;31601;48.042;12.240;2023-08-12T12:26:35;96363.84;;;32.57;40.36
12757;BME280;31601;48.042;12.240;2023-08-12T12:29:02;96357.97;;;32.03;40.02
12757;BME280;31601;48.042;12.240;2023-08-12T12:31:30;96363.22;;;31.82;41.23
12757;BME280;31601;48.042;12.240;2023-08-12T12:33:57;96360.13;;;31.48;41.49
12757;BME280;31601;48.042;12.240;2023-08-12T12:36:23;96355.28;;;31.28;40.99
12757;BME280;31601;48.042;12.240;2023-08-12T12:38:50;96354.44;;;31.58;42.25
12757;BME280;31601;48.042;12.240;2023-08-12T12:41:18;96354.44;;;31.76;41.32
12757;BME280;31601;48.042;12.240;2023-08-12T12:43:45;96348.38;;;31.79;42.17
12757;BME280;31601;48.042;12.240;2023-08-12T12:46:11;96347.25;;;31.98;41.21
12757;BME280;31601;48.042;12.240;2023-08-12T12:48:38;96340.06;;;31.67;40.94
12757;BME280;31601;48.042;12.240;2023-08-12T12:51:06;96338.91;;;31.50;41.77